sensor_id;sensor_type;location;lat;lon;timestamp;P1;durP1;ratioP1;P2;durP2;ratioP2
9629;SDS011;16022;50.884;4.698;2022-07-23T00:00:29;21.02;;;15.75;;
9629;SDS011;16022;50.884;4.698;2022-07-23T00:03:04;15.68;;;14.27;;
9629;SDS011;16022;50.884;4.698;2022-07-23T00:05:31;16.48;;;14.90;;
9629;SDS011;16022;50.884;4.698;2022-07-23T00:08:01;17.92;;;16.00;;
9629;SDS011;16022;50.884;4.698;2022-07-23T00:10:28;16.85;;;15.07;;
9629;SDS011;16022;50.884;4.698;2022-07-23T00:12:56;17.40;;;15.52;;
9629;SDS011;16022;50.884;4.698;2022-07-23T00:15:24;18.15;;;16.02;;
9629;SDS011;16022;50.884;4.698;2022-07-23T00:17:52;19.17;;;15.77;;
9629;SDS011;16022;50.884;4.698;2022-07-23T00:20:19;20.77;;;15.98;;
9629;SDS011;16022;50.884;4.698;2022-07-23T00:22:48;17.33;;;15.48;;
9629;SDS011;16022;50.884;4.698;2022-07-23T00:25:15;16.13;;;14.52;;
9629;SDS011;16022;50.884;4.698;2022-07-23T00:27:58;18.48;;;16.58;;
9629;SDS011;16022;50.884;4.698;2022-07-23T00:30:26;18.60;;;16.75;;
9629;SDS011;16022;50.884;4.698;2022-07-23T00:32:58;18.10;;;16.27;;
9629;SDS011;16022;50.884;4.698;2022-07-23T00:35:26;18.08;;;16.27;;
9629;SDS011;16022;50.884;4.698;2022-07-23T00:37:54;19.50;;;17.48;;
9629;SDS011;16022;50.884;4.698;2022-07-23T00:40:23;19.30;;;17.33;;
9629;SDS011;16022;50.884;4.698;2022-07-23T00:42:50;17.45;;;15.63;;
9629;SDS011;16022;50.884;4.698;2022-07-23T00:45:18;19.20;;;17.13;;
9629;SDS011;16022;50.884;4.698;2022-07-23T00:47:46;21.30;;;16.73;;
9629;SDS011;16022;50.884;4.698;2022-07-23T00:50:13;19.52;;;17.63;;
9629;SDS011;16022;50.884;4.698;2022-07-23T00:52:41;19.10;;;16.80;;
9629;SDS011;16022;50.884;4.698;2022-07-23T00:55:09;18.92;;;17.13;;
9629;SDS011;16022;50.884;4.698;2022-07-23T00:57:37;20.13;;;17.80;;
9629;SDS011;16022;50.884;4.698;2022-07-23T01:00:04;19.30;;;17.30;;
9629;SDS011;16022;50.884;4.698;2022-07-23T01:02:32;18.40;;;16.65;;
9629;SDS011;16022;50.884;4.698;2022-07-23T01:05:00;21.00;;;18.83;;
9629;SDS011;16022;50.884;4.698;2022-07-23T01:07:29;19.45;;;17.48;;
9629;SDS011;16022;50.884;4.698;2022-07-23T01:09:56;20.40;;;18.40;;
9629;SDS011;16022;50.884;4.698;2022-07-23T01:12:25;20.48;;;18.38;;
9629;SDS011;16022;50.884;4.698;2022-07-23T01:14:58;20.70;;;18.55;;
9629;SDS011;16022;50.884;4.698;2022-07-23T01:17:26;20.35;;;18.25;;
9629;SDS011;16022;50.884;4.698;2022-07-23T01:19:54;19.25;;;17.45;;
9629;SDS011;16022;50.884;4.698;2022-07-23T01:22:21;23.30;;;18.35;;
9629;SDS011;16022;50.884;4.698;2022-07-23T01:24:49;20.25;;;18.27;;
9629;SDS011;16022;50.884;4.698;2022-07-23T01:27:16;20.40;;;18.30;;
9629;SDS011;16022;50.884;4.698;2022-07-23T01:29:45;20.88;;;18.70;;
9629;SDS011;16022;50.884;4.698;2022-07-23T01:32:13;20.58;;;18.27;;
9629;SDS011;16022;50.884;4.698;2022-07-23T01:34:40;20.23;;;18.20;;
9629;SDS011;16022;50.884;4.698;2022-07-23T01:37:08;21.25;;;19.08;;
9629;SDS011;16022;50.884;4.698;2022-07-23T01:39:35;20.83;;;18.65;;
9629;SDS011;16022;50.884;4.698;2022-07-23T01:42:03;21.58;;;19.35;;
9629;SDS011;16022;50.884;4.698;2022-07-23T01:44:30;21.65;;;19.55;;
9629;SDS011;16022;50.884;4.698;2022-07-23T01:46:57;21.23;;;18.95;;
9629;SDS011;16022;50.884;4.698;2022-07-23T01:49:25;20.67;;;18.52;;
9629;SDS011;16022;50.884;4.698;2022-07-23T01:51:52;20.33;;;18.42;;
9629;SDS011;16022;50.884;4.698;2022-07-23T01:54:30;19.80;;;17.92;;
9629;SDS011;16022;50.884;4.698;2022-07-23T01:56:58;20.02;;;18.15;;
9629;SDS011;16022;50.884;4.698;2022-07-23T01:59:26;21.27;;;19.00;;
9629;SDS011;16022;50.884;4.698;2022-07-23T02:01:54;22.20;;;19.98;;
9629;SDS011;16022;50.884;4.698;2022-07-23T02:04:23;27.15;;;19.77;;
9629;SDS011;16022;50.884;4.698;2022-07-23T02:06:51;22.35;;;20.05;;
9629;SDS011;16022;50.884;4.698;2022-07-23T02:09:19;21.77;;;19.10;;
9629;SDS011;16022;50.884;4.698;2022-07-23T02:11:47;23.58;;;20.45;;
9629;SDS011;16022;50.884;4.698;2022-07-23T02:14:14;22.57;;;20.17;;
9629;SDS011;16022;50.884;4.698;2022-07-23T02:16:42;20.92;;;18.92;;
9629;SDS011;16022;50.884;4.698;2022-07-23T02:19:09;21.55;;;18.98;;
9629;SDS011;16022;50.884;4.698;2022-07-23T02:21:36;21.63;;;18.70;;
9629;SDS011;16022;50.884;4.698;2022-07-23T02:24:04;20.13;;;18.17;;
9629;SDS011;16022;50.884;4.698;2022-07-23T02:26:31;20.35;;;18.35;;
9629;SDS011;16022;50.884;4.698;2022-07-23T02:29:01;20.52;;;18.52;;
9629;SDS011;16022;50.884;4.698;2022-07-23T02:31:30;21.50;;;18.55;;
9629;SDS011;16022;50.884;4.698;2022-07-23T02:33:57;21.20;;;19.00;;
9629;SDS011;16022;50.884;4.698;2022-07-23T02:36:25;21.83;;;19.45;;
9629;SDS011;16022;50.884;4.698;2022-07-23T02:38:52;19.52;;;17.38;;
9629;SDS011;16022;50.884;4.698;2022-07-23T02:41:20;19.55;;;17.55;;
9629;SDS011;16022;50.884;4.698;2022-07-23T02:43:47;21.73;;;19.45;;
9629;SDS011;16022;50.884;4.698;2022-07-23T02:46:14;23.02;;;19.30;;
9629;SDS011;16022;50.884;4.698;2022-07-23T02:48:42;21.35;;;19.10;;
9629;SDS011;16022;50.884;4.698;2022-07-23T02:51:09;22.55;;;17.88;;
9629;SDS011;16022;50.884;4.698;2022-07-23T02:53:40;20.65;;;18.45;;
9629;SDS011;16022;50.884;4.698;2022-07-23T02:56:08;20.38;;;18.40;;
9629;SDS011;16022;50.884;4.698;2022-07-23T02:58:35;21.45;;;19.17;;
9629;SDS011;16022;50.884;4.698;2022-07-23T03:01:03;21.13;;;18.50;;
9629;SDS011;16022;50.884;4.698;2022-07-23T03:03:31;20.83;;;18.63;;
9629;SDS011;16022;50.884;4.698;2022-07-23T03:05:59;20.45;;;18.45;;
9629;SDS011;16022;50.884;4.698;2022-07-23T03:08:26;21.05;;;18.77;;
9629;SDS011;16022;50.884;4.698;2022-07-23T03:10:54;22.10;;;20.00;;
9629;SDS011;16022;50.884;4.698;2022-07-23T03:13:21;22.17;;;19.88;;
9629;SDS011;16022;50.884;4.698;2022-07-23T03:15:49;21.77;;;19.70;;
9629;SDS011;16022;50.884;4.698;2022-07-23T03:18:16;21.05;;;18.80;;
9629;SDS011;16022;50.884;4.698;2022-07-23T03:20:44;21.85;;;19.70;;
9629;SDS011;16022;50.884;4.698;2022-07-23T03:23:11;22.77;;;20.35;;
9629;SDS011;16022;50.884;4.698;2022-07-23T03:25:38;22.45;;;20.15;;
9629;SDS011;16022;50.884;4.698;2022-07-23T03:28:06;21.45;;;19.10;;
9629;SDS011;16022;50.884;4.698;2022-07-23T03:30:33;21.85;;;19.65;;
9629;SDS011;16022;50.884;4.698;2022-07-23T03:33:01;22.63;;;20.17;;
9629;SDS011;16022;50.884;4.698;2022-07-23T03:35:28;25.15;;;21.30;;
9629;SDS011;16022;50.884;4.698;2022-07-23T03:37:55;22.77;;;20.27;;
9629;SDS011;16022;50.884;4.698;2022-07-23T03:40:23;24.55;;;20.50;;
9629;SDS011;16022;50.884;4.698;2022-07-23T03:42:50;24.75;;;19.13;;
9629;SDS011;16022;50.884;4.698;2022-07-23T03:45:17;23.88;;;21.33;;
9629;SDS011;16022;50.884;4.698;2022-07-23T03:47:46;22.48;;;20.08;;
9629;SDS011;16022;50.884;4.698;2022-07-23T03:50:13;21.40;;;19.10;;
9629;SDS011;16022;50.884;4.698;2022-07-23T03:52:41;23.25;;;18.65;;
9629;SDS011;16022;50.884;4.698;2022-07-23T03:55:08;21.95;;;19.67;;
9629;SDS011;16022;50.884;4.698;2022-07-23T03:57:36;23.08;;;20.70;;
9629;SDS011;16022;50.884;4.698;2022-07-23T04:00:04;21.17;;;18.92;;
9629;SDS011;16022;50.884;4.698;2022-07-23T04:02:32;21.35;;;19.27;;
9629;SDS011;16022;50.884;4.698;2022-07-23T04:05:00;25.30;;;20.50;;
9629;SDS011;16022;50.884;4.698;2022-07-23T04:07:27;21.60;;;19.35;;
9629;SDS011;16022;50.884;4.698;2022-07-23T04:09:55;22.48;;;20.17;;
9629;SDS011;16022;50.884;4.698;2022-07-23T04:12:22;22.17;;;20.08;;
9629;SDS011;16022;50.884;4.698;2022-07-23T04:14:50;22.67;;;20.45;;
9629;SDS011;16022;50.884;4.698;2022-07-23T04:17:17;22.23;;;20.02;;
9629;SDS011;16022;50.884;4.698;2022-07-23T04:19:45;21.98;;;19.80;;
9629;SDS011;16022;50.884;4.698;2022-07-23T04:22:12;22.20;;;19.75;;
9629;SDS011;16022;50.884;4.698;2022-07-23T04:24:41;21.48;;;19.33;;
9629;SDS011;16022;50.884;4.698;2022-07-23T04:27:09;21.08;;;19.02;;
9629;SDS011;16022;50.884;4.698;2022-07-23T04:29:37;20.85;;;18.92;;
9629;SDS011;16022;50.884;4.698;2022-07-23T04:32:04;21.67;;;19.45;;
9629;SDS011;16022;50.884;4.698;2022-07-23T04:34:32;20.55;;;18.30;;
9629;SDS011;16022;50.884;4.698;2022-07-23T04:37:00;20.67;;;18.70;;
9629;SDS011;16022;50.884;4.698;2022-07-23T04:39:27;19.13;;;17.15;;
9629;SDS011;16022;50.884;4.698;2022-07-23T04:41:55;19.65;;;17.63;;
9629;SDS011;16022;50.884;4.698;2022-07-23T04:44:22;20.95;;;17.63;;
9629;SDS011;16022;50.884;4.698;2022-07-23T04:46:50;19.15;;;17.00;;
9629;SDS011;16022;50.884;4.698;2022-07-23T04:49:19;19.08;;;17.17;;
9629;SDS011;16022;50.884;4.698;2022-07-23T04:51:47;19.13;;;17.13;;
9629;SDS011;16022;50.884;4.698;2022-07-23T04:54:14;19.00;;;17.20;;
9629;SDS011;16022;50.884;4.698;2022-07-23T04:56:44;18.77;;;16.85;;
9629;SDS011;16022;50.884;4.698;2022-07-23T04:59:11;19.42;;;16.55;;
9629;SDS011;16022;50.884;4.698;2022-07-23T05:01:38;18.63;;;16.65;;
9629;SDS011;16022;50.884;4.698;2022-07-23T05:04:08;18.88;;;17.02;;
9629;SDS011;16022;50.884;4.698;2022-07-23T05:06:36;18.95;;;16.98;;
9629;SDS011;16022;50.884;4.698;2022-07-23T05:09:04;18.60;;;16.75;;
9629;SDS011;16022;50.884;4.698;2022-07-23T05:11:31;17.50;;;15.90;;
9629;SDS011;16022;50.884;4.698;2022-07-23T05:13:59;18.08;;;15.63;;
9629;SDS011;16022;50.884;4.698;2022-07-23T05:16:27;16.80;;;15.23;;
9629;SDS011;16022;50.884;4.698;2022-07-23T05:18:54;17.38;;;15.68;;
9629;SDS011;16022;50.884;4.698;2022-07-23T05:21:22;16.83;;;15.48;;
9629;SDS011;16022;50.884;4.698;2022-07-23T05:23:49;16.25;;;14.63;;
9629;SDS011;16022;50.884;4.698;2022-07-23T05:26:17;16.90;;;15.23;;
9629;SDS011;16022;50.884;4.698;2022-07-23T05:28:47;16.75;;;15.05;;
9629;SDS011;16022;50.884;4.698;2022-07-23T05:31:15;16.55;;;14.90;;
9629;SDS011;16022;50.884;4.698;2022-07-23T05:33:43;16.52;;;15.07;;
9629;SDS011;16022;50.884;4.698;2022-07-23T05:36:10;16.02;;;14.43;;
9629;SDS011;16022;50.884;4.698;2022-07-23T05:38:37;16.00;;;14.40;;
9629;SDS011;16022;50.884;4.698;2022-07-23T05:41:04;14.88;;;13.45;;
9629;SDS011;16022;50.884;4.698;2022-07-23T05:43:32;14.68;;;13.30;;
9629;SDS011;16022;50.884;4.698;2022-07-23T05:45:59;14.65;;;13.18;;
9629;SDS011;16022;50.884;4.698;2022-07-23T05:48:27;14.55;;;13.07;;
9629;SDS011;16022;50.884;4.698;2022-07-23T05:50:54;13.75;;;12.40;;
9629;SDS011;16022;50.884;4.698;2022-07-23T05:53:22;13.07;;;11.73;;
9629;SDS011;16022;50.884;4.698;2022-07-23T05:55:49;13.63;;;12.23;;
9629;SDS011;16022;50.884;4.698;2022-07-23T05:58:17;13.30;;;11.70;;
9629;SDS011;16022;50.884;4.698;2022-07-23T06:00:45;13.00;;;11.40;;
9629;SDS011;16022;50.884;4.698;2022-07-23T06:03:12;12.23;;;11.02;;
9629;SDS011;16022;50.884;4.698;2022-07-23T06:05:40;11.95;;;10.75;;
9629;SDS011;16022;50.884;4.698;2022-07-23T06:08:08;12.98;;;11.77;;
9629;SDS011;16022;50.884;4.698;2022-07-23T06:10:35;11.63;;;10.60;;
9629;SDS011;16022;50.884;4.698;2022-07-23T06:13:03;12.65;;;11.38;;
9629;SDS011;16022;50.884;4.698;2022-07-23T06:15:32;13.60;;;12.27;;
9629;SDS011;16022;50.884;4.698;2022-07-23T06:18:00;13.13;;;11.88;;
9629;SDS011;16022;50.884;4.698;2022-07-23T06:20:29;12.73;;;11.52;;
9629;SDS011;16022;50.884;4.698;2022-07-23T06:22:57;11.30;;;10.15;;
9629;SDS011;16022;50.884;4.698;2022-07-23T06:25:26;12.32;;;10.40;;
9629;SDS011;16022;50.884;4.698;2022-07-23T06:27:53;12.52;;;10.23;;
9629;SDS011;16022;50.884;4.698;2022-07-23T06:30:20;10.70;;;9.65;;
9629;SDS011;16022;50.884;4.698;2022-07-23T06:32:50;11.00;;;9.98;;
9629;SDS011;16022;50.884;4.698;2022-07-23T06:35:17;11.57;;;10.00;;
9629;SDS011;16022;50.884;4.698;2022-07-23T06:37:45;11.10;;;9.98;;
9629;SDS011;16022;50.884;4.698;2022-07-23T06:40:13;14.00;;;11.32;;
9629;SDS011;16022;50.884;4.698;2022-07-23T06:42:41;12.15;;;10.98;;
9629;SDS011;16022;50.884;4.698;2022-07-23T06:45:10;13.68;;;11.52;;
9629;SDS011;16022;50.884;4.698;2022-07-23T06:47:37;12.88;;;11.63;;
9629;SDS011;16022;50.884;4.698;2022-07-23T06:50:06;12.70;;;11.40;;
9629;SDS011;16022;50.884;4.698;2022-07-23T06:52:34;12.75;;;11.55;;
9629;SDS011;16022;50.884;4.698;2022-07-23T06:55:08;12.43;;;11.20;;
9629;SDS011;16022;50.884;4.698;2022-07-23T06:57:35;16.00;;;11.35;;
9629;SDS011;16022;50.884;4.698;2022-07-23T07:00:03;12.13;;;10.93;;
9629;SDS011;16022;50.884;4.698;2022-07-23T07:02:31;11.80;;;10.63;;
9629;SDS011;16022;50.884;4.698;2022-07-23T07:04:59;12.65;;;11.45;;
9629;SDS011;16022;50.884;4.698;2022-07-23T07:07:31;11.50;;;10.30;;
9629;SDS011;16022;50.884;4.698;2022-07-23T07:09:58;11.20;;;10.15;;
9629;SDS011;16022;50.884;4.698;2022-07-23T07:12:25;11.60;;;10.50;;
9629;SDS011;16022;50.884;4.698;2022-07-23T07:14:54;12.57;;;11.15;;
9629;SDS011;16022;50.884;4.698;2022-07-23T07:17:21;11.32;;;10.32;;
9629;SDS011;16022;50.884;4.698;2022-07-23T07:19:49;9.73;;;8.90;;
9629;SDS011;16022;50.884;4.698;2022-07-23T07:22:17;12.07;;;9.50;;
9629;SDS011;16022;50.884;4.698;2022-07-23T07:24:45;8.68;;;7.20;;
9629;SDS011;16022;50.884;4.698;2022-07-23T07:27:12;10.82;;;8.60;;
9629;SDS011;16022;50.884;4.698;2022-07-23T07:29:40;8.77;;;7.82;;
9629;SDS011;16022;50.884;4.698;2022-07-23T07:32:08;8.82;;;7.20;;
9629;SDS011;16022;50.884;4.698;2022-07-23T07:34:35;6.70;;;5.90;;
9629;SDS011;16022;50.884;4.698;2022-07-23T07:37:03;7.18;;;6.28;;
9629;SDS011;16022;50.884;4.698;2022-07-23T07:39:30;7.30;;;6.60;;
9629;SDS011;16022;50.884;4.698;2022-07-23T07:41:59;6.93;;;5.75;;
9629;SDS011;16022;50.884;4.698;2022-07-23T07:44:27;6.60;;;5.78;;
9629;SDS011;16022;50.884;4.698;2022-07-23T07:46:54;6.80;;;6.13;;
9629;SDS011;16022;50.884;4.698;2022-07-23T07:49:22;5.57;;;4.40;;
9629;SDS011;16022;50.884;4.698;2022-07-23T07:51:52;8.05;;;7.25;;
9629;SDS011;16022;50.884;4.698;2022-07-23T07:54:19;7.13;;;6.00;;
9629;SDS011;16022;50.884;4.698;2022-07-23T07:56:47;6.40;;;5.80;;
9629;SDS011;16022;50.884;4.698;2022-07-23T07:59:15;7.10;;;6.40;;
9629;SDS011;16022;50.884;4.698;2022-07-23T08:01:43;5.70;;;4.57;;
9629;SDS011;16022;50.884;4.698;2022-07-23T08:04:10;5.55;;;5.05;;
9629;SDS011;16022;50.884;4.698;2022-07-23T08:06:38;8.00;;;5.35;;
9629;SDS011;16022;50.884;4.698;2022-07-23T08:09:05;5.95;;;5.35;;
9629;SDS011;16022;50.884;4.698;2022-07-23T08:11:33;4.97;;;4.57;;
9629;SDS011;16022;50.884;4.698;2022-07-23T08:14:00;6.15;;;4.65;;
9629;SDS011;16022;50.884;4.698;2022-07-23T08:16:29;6.78;;;5.82;;
9629;SDS011;16022;50.884;4.698;2022-07-23T08:19:16;6.07;;;4.45;;
9629;SDS011;16022;50.884;4.698;2022-07-23T08:21:44;8.45;;;4.82;;
9629;SDS011;16022;50.884;4.698;2022-07-23T08:24:12;9.18;;;5.65;;
9629;SDS011;16022;50.884;4.698;2022-07-23T08:26:39;6.20;;;5.60;;
9629;SDS011;16022;50.884;4.698;2022-07-23T08:29:07;6.45;;;5.95;;
9629;SDS011;16022;50.884;4.698;2022-07-23T08:31:35;5.63;;;4.95;;
9629;SDS011;16022;50.884;4.698;2022-07-23T08:34:02;6.88;;;6.07;;
9629;SDS011;16022;50.884;4.698;2022-07-23T08:36:30;6.97;;;4.97;;
9629;SDS011;16022;50.884;4.698;2022-07-23T08:39:01;9.32;;;5.30;;
9629;SDS011;16022;50.884;4.698;2022-07-23T08:41:30;8.27;;;6.72;;
9629;SDS011;16022;50.884;4.698;2022-07-23T08:43:57;5.68;;;5.18;;
9629;SDS011;16022;50.884;4.698;2022-07-23T08:46:28;6.85;;;4.75;;
9629;SDS011;16022;50.884;4.698;2022-07-23T08:48:56;7.03;;;5.53;;
9629;SDS011;16022;50.884;4.698;2022-07-23T08:51:25;4.80;;;4.32;;
9629;SDS011;16022;50.884;4.698;2022-07-23T08:53:56;7.47;;;5.80;;
9629;SDS011;16022;50.884;4.698;2022-07-23T08:56:24;7.00;;;5.43;;
9629;SDS011;16022;50.884;4.698;2022-07-23T08:58:53;6.57;;;5.70;;
9629;SDS011;16022;50.884;4.698;2022-07-23T09:01:21;7.65;;;4.55;;
9629;SDS011;16022;50.884;4.698;2022-07-23T09:03:49;8.70;;;5.18;;
9629;SDS011;16022;50.884;4.698;2022-07-23T09:06:16;5.85;;;5.25;;
9629;SDS011;16022;50.884;4.698;2022-07-23T09:08:44;5.30;;;4.78;;
9629;SDS011;16022;50.884;4.698;2022-07-23T09:11:15;6.38;;;4.82;;
9629;SDS011;16022;50.884;4.698;2022-07-23T09:16:18;4.90;;;4.40;;
9629;SDS011;16022;50.884;4.698;2022-07-23T09:23:54;5.55;;;3.97;;
9629;SDS011;16022;50.884;4.698;2022-07-23T09:26:27;4.95;;;4.10;;
9629;SDS011;16022;50.884;4.698;2022-07-23T09:29:02;4.40;;;4.00;;
9629;SDS011;16022;50.884;4.698;2022-07-23T09:36:40;4.00;;;2.95;;
9629;SDS011;16022;50.884;4.698;2022-07-23T09:39:09;7.30;;;3.30;;
9629;SDS011;16022;50.884;4.698;2022-07-23T09:41:38;6.35;;;3.53;;
9629;SDS011;16022;50.884;4.698;2022-07-23T09:44:08;6.80;;;4.15;;
9629;SDS011;16022;50.884;4.698;2022-07-23T09:46:37;6.25;;;4.20;;
9629;SDS011;16022;50.884;4.698;2022-07-23T09:49:11;3.70;;;3.40;;
9629;SDS011;16022;50.884;4.698;2022-07-23T09:56:49;3.25;;;2.95;;
9629;SDS011;16022;50.884;4.698;2022-07-23T09:59:18;3.42;;;3.00;;
9629;SDS011;16022;50.884;4.698;2022-07-23T10:01:46;3.88;;;2.90;;
9629;SDS011;16022;50.884;4.698;2022-07-23T10:04:14;5.30;;;3.08;;
9629;SDS011;16022;50.884;4.698;2022-07-23T10:06:41;3.00;;;2.70;;
9629;SDS011;16022;50.884;4.698;2022-07-23T10:09:11;3.00;;;2.70;;
9629;SDS011;16022;50.884;4.698;2022-07-23T10:11:39;3.53;;;2.35;;
9629;SDS011;16022;50.884;4.698;2022-07-23T10:14:07;2.60;;;2.40;;
9629;SDS011;16022;50.884;4.698;2022-07-23T10:16:35;4.90;;;2.65;;
9629;SDS011;16022;50.884;4.698;2022-07-23T10:19:02;3.72;;;3.20;;
9629;SDS011;16022;50.884;4.698;2022-07-23T10:21:34;2.72;;;2.53;;
9629;SDS011;16022;50.884;4.698;2022-07-23T10:24:28;3.88;;;2.55;;
9629;SDS011;16022;50.884;4.698;2022-07-23T10:26:53;3.03;;;2.50;;
9629;SDS011;16022;50.884;4.698;2022-07-23T10:32:16;3.35;;;2.20;;
9629;SDS011;16022;50.884;4.698;2022-07-23T10:34:48;3.72;;;2.30;;
9629;SDS011;16022;50.884;4.698;2022-07-23T10:37:21;5.30;;;1.92;;
9629;SDS011;16022;50.884;4.698;2022-07-23T10:42:38;1.90;;;1.50;;
9629;SDS011;16022;50.884;4.698;2022-07-23T10:47:54;2.60;;;2.03;;
9629;SDS011;16022;50.884;4.698;2022-07-23T10:50:26;3.75;;;3.08;;
9629;SDS011;16022;50.884;4.698;2022-07-23T10:58:03;2.85;;;2.30;;
9629;SDS011;16022;50.884;4.698;2022-07-23T11:00:31;2.20;;;1.98;;
9629;SDS011;16022;50.884;4.698;2022-07-23T11:03:30;3.47;;;2.50;;
9629;SDS011;16022;50.884;4.698;2022-07-23T11:05:53;2.50;;;2.00;;
9629;SDS011;16022;50.884;4.698;2022-07-23T11:08:21;3.15;;;2.25;;
9629;SDS011;16022;50.884;4.698;2022-07-23T11:13:58;2.38;;;2.17;;
9629;SDS011;16022;50.884;4.698;2022-07-23T11:23:58;2.65;;;2.33;;
9629;SDS011;16022;50.884;4.698;2022-07-23T11:32:07;2.85;;;2.33;;
9629;SDS011;16022;50.884;4.698;2022-07-23T11:34:42;2.90;;;2.70;;
9629;SDS011;16022;50.884;4.698;2022-07-23T11:37:35;2.20;;;2.00;;
9629;SDS011;16022;50.884;4.698;2022-07-23T11:40:03;2.45;;;2.25;;
9629;SDS011;16022;50.884;4.698;2022-07-23T11:42:33;4.30;;;2.15;;
9629;SDS011;16022;50.884;4.698;2022-07-23T11:45:03;2.75;;;2.33;;
9629;SDS011;16022;50.884;4.698;2022-07-23T11:47:31;2.75;;;2.55;;
9629;SDS011;16022;50.884;4.698;2022-07-23T11:49:59;6.57;;;2.65;;
9629;SDS011;16022;50.884;4.698;2022-07-23T11:52:28;2.67;;;2.47;;
9629;SDS011;16022;50.884;4.698;2022-07-23T11:55:00;5.05;;;2.95;;
9629;SDS011;16022;50.884;4.698;2022-07-23T11:57:30;3.72;;;2.85;;
9629;SDS011;16022;50.884;4.698;2022-07-23T12:00:03;3.17;;;2.60;;
9629;SDS011;16022;50.884;4.698;2022-07-23T12:02:32;3.58;;;2.72;;
9629;SDS011;16022;50.884;4.698;2022-07-23T12:04:59;2.75;;;2.55;;
9629;SDS011;16022;50.884;4.698;2022-07-23T12:09:57;4.82;;;2.67;;
9629;SDS011;16022;50.884;4.698;2022-07-23T12:12:25;3.78;;;2.70;;
9629;SDS011;16022;50.884;4.698;2022-07-23T12:14:54;7.10;;;2.65;;
9629;SDS011;16022;50.884;4.698;2022-07-23T12:17:27;3.33;;;2.90;;
9629;SDS011;16022;50.884;4.698;2022-07-23T12:19:57;3.63;;;2.70;;
9629;SDS011;16022;50.884;4.698;2022-07-23T12:22:26;2.95;;;2.70;;
9629;SDS011;16022;50.884;4.698;2022-07-23T12:25:01;5.43;;;2.60;;
9629;SDS011;16022;50.884;4.698;2022-07-23T12:27:29;2.53;;;2.33;;
9629;SDS011;16022;50.884;4.698;2022-07-23T12:29:57;5.10;;;2.47;;
9629;SDS011;16022;50.884;4.698;2022-07-23T12:32:26;3.00;;;2.50;;
9629;SDS011;16022;50.884;4.698;2022-07-23T12:35:05;3.67;;;2.40;;
9629;SDS011;16022;50.884;4.698;2022-07-23T12:37:34;2.53;;;2.17;;
9629;SDS011;16022;50.884;4.698;2022-07-23T12:42:50;3.55;;;2.53;;
9629;SDS011;16022;50.884;4.698;2022-07-23T12:45:17;2.60;;;2.40;;
9629;SDS011;16022;50.884;4.698;2022-07-23T12:47:56;2.33;;;2.20;;
9629;SDS011;16022;50.884;4.698;2022-07-23T12:50:32;3.58;;;2.40;;
9629;SDS011;16022;50.884;4.698;2022-07-23T12:53:07;2.92;;;2.38;;
9629;SDS011;16022;50.884;4.698;2022-07-23T12:55:43;2.63;;;2.42;;
9629;SDS011;16022;50.884;4.698;2022-07-23T12:58:40;2.40;;;2.20;;
9629;SDS011;16022;50.884;4.698;2022-07-23T13:01:09;2.67;;;2.33;;
9629;SDS011;16022;50.884;4.698;2022-07-23T13:03:39;2.63;;;2.42;;
9629;SDS011;16022;50.884;4.698;2022-07-23T13:06:09;2.90;;;2.55;;
9629;SDS011;16022;50.884;4.698;2022-07-23T13:08:38;3.08;;;2.03;;
9629;SDS011;16022;50.884;4.698;2022-07-23T13:11:06;2.60;;;2.40;;
9629;SDS011;16022;50.884;4.698;2022-07-23T13:13:34;2.50;;;2.30;;
9629;SDS011;16022;50.884;4.698;2022-07-23T13:16:02;2.70;;;2.13;;
9629;SDS011;16022;50.884;4.698;2022-07-23T13:18:36;2.60;;;2.10;;
9629;SDS011;16022;50.884;4.698;2022-07-23T13:21:05;2.78;;;2.28;;
9629;SDS011;16022;50.884;4.698;2022-07-23T13:23:34;3.17;;;2.70;;
9629;SDS011;16022;50.884;4.698;2022-07-23T13:26:02;2.70;;;2.50;;
9629;SDS011;16022;50.884;4.698;2022-07-23T13:28:30;4.25;;;2.75;;
9629;SDS011;16022;50.884;4.698;2022-07-23T13:31:00;3.00;;;2.20;;
9629;SDS011;16022;50.884;4.698;2022-07-23T13:33:31;2.90;;;2.58;;
9629;SDS011;16022;50.884;4.698;2022-07-23T13:35:59;2.45;;;2.22;;
9629;SDS011;16022;50.884;4.698;2022-07-23T13:38:27;3.70;;;2.50;;
9629;SDS011;16022;50.884;4.698;2022-07-23T13:40:55;2.47;;;2.28;;
9629;SDS011;16022;50.884;4.698;2022-07-23T13:43:24;3.15;;;2.70;;
9629;SDS011;16022;50.884;4.698;2022-07-23T13:45:58;3.33;;;2.50;;
9629;SDS011;16022;50.884;4.698;2022-07-23T13:48:26;3.13;;;2.50;;
9629;SDS011;16022;50.884;4.698;2022-07-23T13:50:55;2.50;;;2.30;;
9629;SDS011;16022;50.884;4.698;2022-07-23T13:53:24;4.97;;;2.50;;
9629;SDS011;16022;50.884;4.698;2022-07-23T13:55:52;3.00;;;2.40;;
9629;SDS011;16022;50.884;4.698;2022-07-23T13:58:21;2.92;;;2.15;;
9629;SDS011;16022;50.884;4.698;2022-07-23T14:00:51;2.40;;;2.13;;
9629;SDS011;16022;50.884;4.698;2022-07-23T14:03:20;2.30;;;2.10;;
9629;SDS011;16022;50.884;4.698;2022-07-23T14:06:11;3.25;;;2.65;;
9629;SDS011;16022;50.884;4.698;2022-07-23T14:08:44;3.17;;;2.25;;
9629;SDS011;16022;50.884;4.698;2022-07-23T14:11:13;4.25;;;2.30;;
9629;SDS011;16022;50.884;4.698;2022-07-23T14:13:41;5.05;;;2.40;;
9629;SDS011;16022;50.884;4.698;2022-07-23T14:16:09;4.13;;;2.80;;
9629;SDS011;16022;50.884;4.698;2022-07-23T14:18:37;3.35;;;2.90;;
9629;SDS011;16022;50.884;4.698;2022-07-23T14:21:04;2.67;;;2.40;;
9629;SDS011;16022;50.884;4.698;2022-07-23T14:23:32;2.70;;;2.30;;
9629;SDS011;16022;50.884;4.698;2022-07-23T14:26:00;4.20;;;2.75;;
9629;SDS011;16022;50.884;4.698;2022-07-23T14:28:32;2.95;;;2.65;;
9629;SDS011;16022;50.884;4.698;2022-07-23T14:30:59;3.03;;;2.53;;
9629;SDS011;16022;50.884;4.698;2022-07-23T14:33:27;2.60;;;2.40;;
9629;SDS011;16022;50.884;4.698;2022-07-23T14:35:56;2.78;;;2.55;;
9629;SDS011;16022;50.884;4.698;2022-07-23T14:38:26;3.42;;;2.67;;
9629;SDS011;16022;50.884;4.698;2022-07-23T14:40:54;2.92;;;2.72;;
9629;SDS011;16022;50.884;4.698;2022-07-23T14:43:22;2.63;;;2.42;;
9629;SDS011;16022;50.884;4.698;2022-07-23T14:45:50;3.78;;;2.92;;
9629;SDS011;16022;50.884;4.698;2022-07-23T14:48:18;3.38;;;2.88;;
9629;SDS011;16022;50.884;4.698;2022-07-23T14:50:47;3.10;;;2.65;;
9629;SDS011;16022;50.884;4.698;2022-07-23T14:53:15;3.72;;;3.10;;
9629;SDS011;16022;50.884;4.698;2022-07-23T14:55:49;3.47;;;2.60;;
9629;SDS011;16022;50.884;4.698;2022-07-23T14:58:20;4.63;;;3.00;;
9629;SDS011;16022;50.884;4.698;2022-07-23T15:00:48;3.03;;;2.70;;
9629;SDS011;16022;50.884;4.698;2022-07-23T15:03:17;4.18;;;2.90;;
9629;SDS011;16022;50.884;4.698;2022-07-23T15:05:45;4.35;;;3.10;;
9629;SDS011;16022;50.884;4.698;2022-07-23T15:08:13;2.60;;;2.40;;
9629;SDS011;16022;50.884;4.698;2022-07-23T15:10:45;3.00;;;2.70;;
9629;SDS011;16022;50.884;4.698;2022-07-23T15:13:13;3.10;;;2.78;;
9629;SDS011;16022;50.884;4.698;2022-07-23T15:15:40;3.45;;;2.78;;
9629;SDS011;16022;50.884;4.698;2022-07-23T15:18:11;3.40;;;3.03;;
9629;SDS011;16022;50.884;4.698;2022-07-23T15:20:43;3.40;;;3.10;;
9629;SDS011;16022;50.884;4.698;2022-07-23T15:23:10;5.70;;;3.10;;
9629;SDS011;16022;50.884;4.698;2022-07-23T15:25:40;3.50;;;3.20;;
9629;SDS011;16022;50.884;4.698;2022-07-23T15:28:28;3.42;;;3.20;;
9629;SDS011;16022;50.884;4.698;2022-07-23T15:30:56;5.25;;;3.22;;
9629;SDS011;16022;50.884;4.698;2022-07-23T15:33:23;3.25;;;3.03;;
9629;SDS011;16022;50.884;4.698;2022-07-23T15:35:51;3.50;;;3.20;;
9629;SDS011;16022;50.884;4.698;2022-07-23T15:38:23;4.22;;;2.88;;
9629;SDS011;16022;50.884;4.698;2022-07-23T15:40:54;3.85;;;2.97;;
9629;SDS011;16022;50.884;4.698;2022-07-23T15:43:23;3.63;;;3.20;;
9629;SDS011;16022;50.884;4.698;2022-07-23T15:45:51;4.00;;;3.20;;
9629;SDS011;16022;50.884;4.698;2022-07-23T15:48:19;3.83;;;3.53;;
9629;SDS011;16022;50.884;4.698;2022-07-23T15:50:47;3.78;;;3.28;;